Share

Floydada, TX (79235)

WT_Meso Floydada 2NE (MFLST2) Elev 3179 ft | 34.00 °N, 101.33 °W | Change Station

Current weather conditions updated 52 minutes ago

Clear
Clear
49 °F
Feels Like 46 °F
N
8
Wind Variable Wind from SSE
Gusts 10.0 mph
Sunrise 7:09 AM
Sunset 8:19 PM
Moon Waning Gibbous

Today is forecast to be Warmer than yesterday.

Pressure 30.09 in
Visibility 10.0 miles
Clouds Clear
Windchill 46 °F
Dew Point 42 °F
Humidity 80%
Rainfall -999.00 in
Snow Depth Not available.
UV 0 out of 16
Pollen 7.00 out of 12
Air Quality Not available.
Flu Activity Local Activity
METAR KPVW 191035Z AUTO 00000KT 10SM CLR 09/05 A3009 RMK AO2 T00850051

More Conditions Fewer Conditions

Pressure 30.09 in
Visibility 10.0 miles
Clouds Clear
Windchill 46 °F
Dew Point 42 °F
Humidity 80%
Rainfall -999.00 in
Snow Depth Not available.
UV 0 out of 16
Pollen 7.00 out of 12
Air Quality Not available.
Flu Activity Local Activity
METAR KPVW 191035Z AUTO 00000KT 10SM CLR 09/05 A3009 RMK AO2 T00850051

More Conditions Fewer Conditions

10-Day Weather Forecast

Almanac

Astronomy

Apr. 19, 2014 Rise Set
Actual Time 7:09 AM CDT 8:19 PM CDT
Civil Twilight 6:43 AM CDT 8:45 PM CDT
Nautical Twilight 6:12 AM CDT 9:16 PM CDT
Astronomical Twilight 5:40 AM CDT 9:48 PM CDT
Moon 12:00 AM CDT 10:36 AM CDT
Length of Visible Light 14h 02m
Length of Day
13h 10m
Tomorrow will be 1m 57s longer.
Waning Gibbous, 81% of the Moon is Illuminated
Today
Waning Gibbous
Apr 22
Last Quarter
Apr 29
New
May 6
First Quarter
May 14
Full

Today's Extremes

State Highs State Lows

Community

  • Bleeding Hearts
    Bleeding Hearts
  • Sunset Silhouettes
    Sunset Silhouettes
  • FL sunset Perico Isle
    FL sunset Perico Isle
  • Cloudy spring view
    Cloudy spring view
  • Old barn
    Old barn

WunderPhotos

Upload Photos

1,702,681 photos uploaded!

WunderBlogs® & News

Nearby

Snow Depth

Station Depth Elevation
No new snow has been reported.

Coastal Water Temperatures

Place Temperature
No Stations Reporting

Earthquake Activity

City Distance Mag. Time & Date
No recent earthquake activity has been reported nearby.
Minimum magnitude displayed is 2.5.

Nearby Weather Stations

Station Location Temp. Windchill Dew Point Humidity Wind Precip. Elev Updated Type
WT_Meso Floydada 2NE, Floydada, TX 49 °F 46 °F 42 °F 80% SSE  at  8 mph 0.00 in / hr 3179 ft 4:55 AM CDT MADIS
3 miles south of, Petersburg, TX 51.3 °F - 44 °F 77% SSW  at  3.0 mph 0.00 in / hr 3227 ft 5:45 AM CDT Normal
WT_Meso Ralls 1SE, Ralls, TX 50 °F 46 °F 42 °F 73% SSE  at  9 mph 0.00 in / hr 3097 ft 4:55 AM CDT MADIS

Show More Stations Show Fewer Stations

What do you think?

We're not finished. Please let us know what you like, what you don't like, and what you are still missing.